Time;durP1;ratioP1;P1;durP2;ratioP2;P2;SDS_P1;SDS_P2;PMS_P1;PMS_P2;Temp;Humidity;BMP_temperature;BMP_pressure;BME280_temperature;BME280_humidity;BME280_pressure;Samples;Min_cycle;Max_cycle;Signal;HPM_P1;HPM_P2
2022/02/08 00:08:56;;;;;;;55.83;23.98;;;1.90;99.90;;;;;;4960573;29;20042;-96
2022/02/08 00:11:32;;;;;;;48.42;23.13;;;1.80;99.90;;;;;;4941910;29;20035;-96
2022/02/08 00:14:09;;;;;;;63.10;25.48;;;1.80;99.90;;;;;;4959113;29;20035;-96
2022/02/08 00:16:46;;;;;;;58.75;24.80;;;1.80;99.90;;;;;;4942152;29;20035;-96
2022/02/08 00:19:27;;;;;;;56.00;26.75;;;1.80;99.90;;;;;;4941650;29;20035;-96
2022/02/08 00:22:07;;;;;;;55.33;25.23;;;1.80;99.90;;;;;;4939858;29;20082;-96
2022/02/08 00:24:40;;;;;;;53.30;25.17;;;1.80;99.90;;;;;;4941411;29;20031;-96
2022/02/08 00:27:25;;;;;;;62.30;27.75;;;1.80;99.90;;;;;;4942115;29;20126;-96
2022/02/08 00:29:59;;;;;;;56.85;26.58;;;1.80;99.90;;;;;;4940004;29;20514;-96
2022/02/08 00:32:28;;;;;;;46.17;22.98;;;1.80;99.90;;;;;;4942564;29;20039;-96
2022/02/08 00:35:03;;;;;;;51.83;25.20;;;1.80;99.90;;;;;;4942406;29;20036;-96
2022/02/08 00:37:38;;;;;;;46.50;23.80;;;1.80;99.90;;;;;;4941803;29;20082;-96
2022/02/08 00:40:15;;;;;;;48.20;24.08;;;1.90;99.90;;;;;;4942198;29;20031;-96
2022/02/08 00:42:48;;;;;;;45.75;23.88;;;1.80;99.90;;;;;;4940645;29;20035;-96
2022/02/08 00:48:23;;;;;;;44.10;22.33;;;1.80;99.90;;;;;;4935751;29;20042;-96
2022/02/08 00:50:58;;;;;;;45.40;23.45;;;1.80;99.90;;;;;;4943245;29;20059;-96
2022/02/08 00:53:29;;;;;;;45.13;23.77;;;1.80;99.90;;;;;;4939813;29;20043;-96
2022/02/08 00:56:03;;;;;;;47.33;23.35;;;1.90;99.90;;;;;;4941582;29;20489;-96
2022/02/08 00:58:48;;;;;;;45.42;23.08;;;1.90;99.90;;;;;;4958343;29;20035;-96
2022/02/08 01:01:20;;;;;;;41.60;22.77;;;1.90;99.90;;;;;;4940353;29;20031;-96
2022/02/08 01:03:57;;;;;;;46.67;23.25;;;1.90;99.90;;;;;;4941794;29;20028;-96
2022/02/08 01:06:31;;;;;;;43.97;22.77;;;1.90;99.90;;;;;;4938644;29;20455;-95
2022/02/08 01:12:12;;;;;;;45.65;24.08;;;1.90;99.90;;;;;;4945559;29;20118;-95
2022/02/08 01:15:09;;;;;;;52.08;26.23;;;1.90;99.90;;;;;;4941247;29;20110;-94
2022/02/08 01:17:48;;;;;;;56.88;25.42;;;1.90;99.90;;;;;;4939164;29;20027;-95
2022/02/08 01:20:21;;;;;;;57.63;27.00;;;1.90;99.90;;;;;;4929981;29;20028;-96
2022/02/08 01:22:56;;;;;;;70.95;30.27;;;1.90;99.90;;;;;;4936013;29;20028;-95
2022/02/08 01:25:45;;;;;;;58.67;26.90;;;1.90;99.90;;;;;;4937106;29;20035;-95
2022/02/08 01:28:42;;;;;;;55.28;27.83;;;1.90;99.90;;;;;;4940712;29;20041;-95
2022/02/08 01:31:29;;;;;;;50.25;24.75;;;1.80;99.90;;;;;;4940432;29;20027;-94
2022/02/08 01:34:33;;;;;;;58.72;27.70;;;1.90;99.90;;;;;;4939934;29;20035;-95
2022/02/08 01:37:25;;;;;;;54.55;26.92;;;1.80;99.90;;;;;;4940852;29;20031;-95
2022/02/08 01:43:52;;;;;;;53.40;27.77;;;1.80;99.90;;;;;;4957576;29;20158;-95
2022/02/08 01:51:16;;;;;;;43.67;24.65;;;1.80;99.90;;;;;;4957216;28;20462;-95
2022/02/08 01:53:50;;;;;;;46.25;23.42;;;1.80;99.90;;;;;;4956708;29;20031;-95
2022/02/08 01:56:31;;;;;;;49.17;25.45;;;1.80;99.90;;;;;;4956076;29;20027;-94
2022/02/08 01:59:04;;;;;;;45.42;24.02;;;1.80;99.90;;;;;;4956465;29;20125;-95
2022/02/08 02:01:30;;;;;;;50.78;24.98;;;1.80;99.90;;;;;;4956476;29;20093;-95
2022/02/08 02:04:13;;;;;;;46.50;24.35;;;1.80;99.90;;;;;;4956441;29;20028;-95
2022/02/08 02:06:47;;;;;;;49.67;24.98;;;1.80;99.90;;;;;;4956365;29;20029;-96
2022/02/08 02:09:20;;;;;;;49.83;24.42;;;1.80;99.90;;;;;;4956152;29;20035;-96
2022/02/08 02:12:03;;;;;;;46.42;24.30;;;1.70;99.90;;;;;;4956564;29;20122;-95
2022/02/08 02:14:41;;;;;;;48.58;25.15;;;1.70;99.90;;;;;;4954703;29;20046;-94
2022/02/08 02:17:28;;;;;;;54.22;27.27;;;1.70;99.90;;;;;;4954380;29;20065;-95
2022/02/08 02:20:05;;;;;;;51.00;26.38;;;1.60;99.90;;;;;;4955517;29;20031;-95
2022/02/08 02:22:37;;;;;;;46.17;24.77;;;1.60;99.90;;;;;;4956505;29;20470;-94
2022/02/08 02:25:13;;;;;;;56.35;26.05;;;1.60;99.90;;;;;;4955298;29;20039;-94
2022/02/08 02:27:52;;;;;;;56.40;27.38;;;1.60;99.90;;;;;;4940735;29;20031;-96
2022/02/08 02:30:33;;;;;;;55.60;27.00;;;1.60;99.90;;;;;;4955056;29;20057;-96
2022/02/08 02:33:05;;;;;;;57.05;26.65;;;1.60;99.90;;;;;;4956031;29;20039;-96
2022/02/08 02:35:39;;;;;;;48.58;26.27;;;1.60;99.90;;;;;;4954951;29;20123;-96
2022/02/08 02:38:08;;;;;;;55.25;28.23;;;1.60;99.90;;;;;;4954923;29;20118;-94
2022/02/08 02:40:40;;;;;;;52.55;26.60;;;1.60;99.90;;;;;;4956119;29;20037;-96
2022/02/08 02:43:33;;;;;;;67.72;30.23;;;1.60;99.90;;;;;;4955219;29;20031;-95
2022/02/08 02:46:24;;;;;;;;;;;;;;;;;;;;;
2022/02/08 02:49:03;;;;;;;58.47;27.90;;;1.50;99.90;;;;;;4950326;28;20051;-96
2022/02/08 02:51:46;;;;;;;60.08;29.42;;;1.60;99.90;;;;;;4939356;29;20496;-96
2022/02/08 02:54:22;;;;;;;56.25;27.42;;;1.50;99.90;;;;;;4938787;29;20114;-96
2022/02/08 02:56:58;;;;;;;56.75;29.33;;;1.50;99.90;;;;;;4939158;29;20039;-95
2022/02/08 02:59:40;;;;;;;60.80;28.63;;;1.60;99.90;;;;;;4939560;29;20035;-96
2022/02/08 03:19:23;;;;;;;58.42;27.88;;;1.50;99.90;;;;;;4956120;29;20046;-96
2022/02/08 03:22:01;;;;;;;57.13;26.83;;;1.50;99.90;;;;;;4955434;29;20035;-96
2022/02/08 03:24:51;;;;;;;54.63;27.38;;;1.50;99.90;;;;;;4924358;29;20028;-94
2022/02/08 03:27:31;;;;;;;52.85;27.23;;;1.50;99.90;;;;;;4938980;29;20030;-95
2022/02/08 03:30:03;;;;;;;55.90;27.92;;;1.50;99.90;;;;;;4938764;29;20042;-96
2022/02/08 03:32:34;;;;;;;54.38;27.15;;;1.50;99.90;;;;;;4938815;29;20116;-96
2022/02/08 03:35:31;;;;;;;60.63;27.77;;;1.40;99.90;;;;;;4939334;29;20031;-96
2022/02/08 03:38:06;;;;;;;73.22;29.90;;;1.40;99.90;;;;;;4939870;29;20053;-96
2022/02/08 03:41:06;;;;;;;48.88;25.63;;;1.40;99.90;;;;;;4941959;29;20047;-96
2022/02/08 03:43:56;;;;;;;56.08;25.77;;;1.50;99.90;;;;;;4934668;29;20040;-95
2022/02/08 03:53:27;;;;;;;;;;;;;;;;;;;;;
2022/02/08 03:56:06;;;;;;;;;;;;;;;;;;;;;
2022/02/08 03:58:41;;;;;;;67.18;28.40;;;1.40;99.90;;;;;;4924955;29;20183;-96
2022/02/08 04:04:38;;;;;;;61.30;30.65;;;1.30;99.90;;;;;;4908229;29;20591;-96
2022/02/08 04:07:35;;;;;;;70.95;32.50;;;1.30;99.90;;;;;;4905963;29;20032;-94
2022/02/08 04:10:06;;;;;;;74.63;32.70;;;1.30;99.90;;;;;;4905965;29;20032;-96
2022/02/08 04:38:12;;;;;;;74.50;33.92;;;1.10;99.90;;;;;;4961685;29;20113;-96
2022/02/08 04:41:18;;;;;;;73.30;35.50;;;1.10;99.90;;;;;;4945638;29;20039;-96
2022/02/08 04:46:59;;;;;;;78.05;35.00;;;1.00;99.90;;;;;;4950949;29;20114;-96
2022/02/08 04:49:55;;;;;;;78.70;35.38;;;1.00;99.90;;;;;;4961430;29;20063;-96
2022/02/08 04:52:43;;;;;;;82.82;35.17;;;1.00;99.90;;;;;;4951559;29;20039;-96
2022/02/08 04:58:35;;;;;;;80.97;36.55;;;1.00;99.90;;;;;;4964469;28;20037;-96
2022/02/08 05:01:30;;;;;;;73.45;35.47;;;0.90;99.90;;;;;;4961423;29;20123;-95
2022/02/08 05:34:14;;;;;;;91.35;40.08;;;0.80;99.90;;;;;;4958145;29;20101;-93
2022/02/08 05:42:18;;;;;;;102.65;45.15;;;0.80;99.90;;;;;;4957468;29;20102;-91
2022/02/08 05:44:25;;;;;;;104.28;44.53;;;0.80;99.90;;;;;;4948399;29;20032;-93
2022/02/08 05:46:52;;;;;;;106.63;45.85;;;0.80;99.90;;;;;;4955638;29;20031;-93
2022/02/08 05:49:40;;;;;;;113.28;46.60;;;0.80;99.90;;;;;;4955949;29;20031;-92
2022/02/08 15:19:03;;;;;;;4.40;3.60;;;1.10;99.90;;;;;;4949949;27;5103692;-90
2022/02/08 15:21:34;;;;;;;6.47;4.38;;;1.10;99.90;;;;;;5094617;28;20032;-91
2022/02/08 15:24:08;;;;;;;7.00;4.53;;;1.10;99.90;;;;;;5094008;28;20069;-89
2022/02/08 15:26:45;;;;;;;7.93;5.25;;;1.10;99.90;;;;;;5078735;28;20032;-90
2022/02/08 15:29:12;;;;;;;11.85;5.22;;;1.10;99.90;;;;;;5089932;28;20122;-91
2022/02/08 15:31:41;;;;;;;10.98;6.15;;;1.20;99.90;;;;;;5073632;28;20032;-91
2022/02/08 15:34:11;;;;;;;12.55;5.80;;;1.20;99.90;;;;;;5073821;28;20039;-91
2022/02/08 15:36:37;;;;;;;9.85;5.35;;;1.20;99.90;;;;;;5073542;28;20020;-89
2022/02/08 15:39:09;;;;;;;5.60;3.67;;;1.30;99.90;;;;;;5074884;28;20083;-90
2022/02/08 15:41:43;;;;;;;8.35;5.25;;;1.30;99.90;;;;;;5090564;28;20028;-90
2022/02/08 15:44:13;;;;;;;8.32;5.03;;;1.30;99.90;;;;;;5093809;28;20405;-91
2022/02/08 15:46:41;;;;;;;13.98;7.32;;;1.30;99.90;;;;;;5094313;28;20377;-91
2022/02/08 15:49:10;;;;;;;11.32;6.63;;;1.40;99.90;;;;;;5093841;28;20441;-91
2022/02/08 15:51:46;;;;;;;9.75;6.10;;;1.40;99.90;;;;;;5093039;28;20020;-91
2022/02/08 15:54:35;;;;;;;12.10;6.60;;;1.40;99.90;;;;;;5094433;28;20024;-92
2022/02/08 16:05:58;;;;;;;12.18;6.22;;;1.40;99.90;;;;;;5076768;28;20066;-91
2022/02/08 16:08:43;;;;;;;17.38;9.20;;;1.40;99.90;;;;;;5074144;28;20362;-91
2022/02/08 16:13:49;;;;;;;16.85;9.57;;;1.40;99.90;;;;;;5090902;28;20471;-91
2022/02/08 16:16:49;;;;;;;16.08;7.70;;;1.40;99.90;;;;;;5072881;28;20031;-91
2022/02/08 16:19:42;;;;;;;14.70;6.80;;;1.40;99.90;;;;;;5089666;28;20048;-90
2022/02/08 16:27:50;;;;;;;14.95;8.10;;;1.40;99.90;;;;;;5087569;28;20379;-91
2022/02/08 16:47:38;;;;;;;9.55;6.43;;;1.40;99.90;;;;;;5077204;28;20138;-91
2022/02/08 16:53:01;;;;;;;9.65;6.30;;;1.40;99.90;;;;;;5045699;28;20071;-90
2022/02/08 16:55:47;;;;;;;10.38;6.28;;;1.40;99.90;;;;;;5058802;28;20029;-91
2022/02/08 16:58:39;;;;;;;11.80;5.18;;;1.40;99.90;;;;;;5058754;28;20033;-91
2022/02/08 17:01:13;;;;;;;9.00;5.00;;;1.40;99.90;;;;;;5067156;28;20024;-90
2022/02/08 17:03:45;;;;;;;10.40;5.43;;;1.40;99.90;;;;;;5078830;28;20020;-93
2022/02/08 17:06:21;;;;;;;7.53;4.10;;;1.40;99.90;;;;;;5079080;28;20034;-94
2022/02/08 17:08:57;;;;;;;8.55;5.03;;;1.40;99.90;;;;;;5079015;28;20024;-93
2022/02/08 17:11:33;;;;;;;8.88;5.57;;;1.40;99.90;;;;;;5078874;28;20028;-93
2022/02/08 17:17:03;;;;;;;20.90;9.30;;;1.40;99.90;;;;;;5096287;28;20511;-93
2022/02/08 17:47:03;;;;;;;15.00;7.95;;;1.40;99.90;;;;;;5076180;28;20074;-94
2022/02/08 17:49:28;;;;;;;15.23;7.10;;;1.50;99.90;;;;;;5057986;28;20040;-93
2022/02/08 17:51:54;;;;;;;15.57;7.53;;;1.50;99.90;;;;;;5058093;28;20375;-93
2022/02/08 17:54:22;;;;;;;13.75;7.03;;;1.40;99.90;;;;;;5057957;28;20031;-94
2022/02/08 17:56:48;;;;;;;15.50;6.88;;;1.50;99.90;;;;;;5057791;28;20044;-94
2022/02/08 17:59:20;;;;;;;10.73;5.68;;;1.50;99.90;;;;;;5057766;28;20463;-93
2022/02/08 18:01:53;;;;;;;11.65;6.45;;;1.40;99.90;;;;;;5058628;28;20021;-93
2022/02/08 18:04:19;;;;;;;12.25;6.68;;;1.40;99.90;;;;;;5058393;28;20020;-93
2022/02/08 18:06:45;;;;;;;10.95;6.10;;;1.40;99.90;;;;;;5074521;28;20458;-95
2022/02/08 18:09:19;;;;;;;9.02;5.75;;;1.40;99.90;;;;;;5077910;28;20020;-94
2022/02/08 18:12:25;;;;;;;9.55;5.40;;;1.40;99.90;;;;;;5077958;28;20036;-93
2022/02/08 18:15:02;;;;;;;11.32;5.00;;;1.40;99.90;;;;;;5077300;28;20016;-93
2022/02/08 18:17:35;;;;;;;8.88;5.05;;;1.40;99.90;;;;;;5077580;28;20441;-93
2022/02/08 18:52:25;;;;;;;10.32;5.18;;;1.40;99.90;;;;;;5002058;28;20037;-93
2022/02/08 19:07:11;;;;;;;16.52;8.18;;;1.50;99.90;;;;;;5074516;28;20089;-93
2022/02/08 19:10:15;;;;;;;10.98;6.03;;;1.50;99.90;;;;;;5057299;28;20025;-94
2022/02/08 19:13:10;;;;;;;15.10;7.10;;;1.50;99.90;;;;;;5056539;28;20083;-94
2022/02/08 19:21:10;;;;;;;12.75;4.95;;;1.40;99.90;;;;;;5074577;28;20025;-93
2022/02/08 19:23:37;;;;;;;15.85;7.75;;;1.40;99.90;;;;;;5057117;28;20477;-93
2022/02/08 19:26:09;;;;;;;11.73;5.80;;;1.40;99.90;;;;;;5056679;28;20033;-94
2022/02/08 19:28:36;;;;;;;8.85;5.70;;;1.40;99.90;;;;;;5073798;28;20425;-93
2022/02/08 19:31:03;;;;;;;12.48;5.55;;;1.40;99.90;;;;;;5076375;28;20028;-94
2022/02/08 19:33:32;;;;;;;68.75;22.13;;;1.40;99.90;;;;;;5076122;28;20021;-94
2022/02/08 19:36:04;;;;;;;28.50;10.63;;;1.40;99.90;;;;;;5076197;28;20516;-93
2022/02/08 19:38:36;;;;;;;19.58;6.70;;;1.40;99.90;;;;;;5056991;28;20042;-93
2022/02/08 19:41:03;;;;;;;17.70;7.28;;;1.40;99.90;;;;;;5056584;28;20049;-94
2022/02/08 19:43:31;;;;;;;13.90;6.18;;;1.40;99.90;;;;;;5056871;28;20526;-94
2022/02/08 19:45:57;;;;;;;11.07;5.07;;;1.40;99.90;;;;;;5056115;28;20024;-94
2022/02/08 19:48:23;;;;;;;11.70;5.68;;;1.40;99.90;;;;;;5056936;28;20024;-93
2022/02/08 19:50:49;;;;;;;9.43;4.93;;;1.40;99.90;;;;;;5056048;28;20033;-94
2022/02/08 19:53:15;;;;;;;10.38;5.35;;;1.40;99.90;;;;;;5056033;28;20024;-95
2022/02/08 19:58:19;;;;;;;11.80;5.82;;;1.20;99.90;;;;;;5082563;28;20032;-94
2022/02/08 20:00:55;;;;;;;11.20;5.80;;;1.20;99.90;;;;;;5075869;28;20024;-93
2022/02/08 20:03:21;;;;;;;10.25;5.00;;;1.10;99.90;;;;;;5076118;28;20027;-94
2022/02/08 20:05:49;;;;;;;10.75;4.55;;;1.10;99.90;;;;;;5079750;28;20023;-94
2022/02/08 20:08:15;;;;;;;8.57;4.55;;;1.10;99.90;;;;;;5079955;28;20024;-94
2022/02/08 20:10:40;;;;;;;7.75;4.55;;;1.20;99.90;;;;;;5080218;28;20071;-94
2022/02/08 20:13:07;;;;;;;9.65;5.47;;;1.20;99.90;;;;;;5080590;28;20027;-95
2022/02/08 20:15:33;;;;;;;9.13;6.00;;;1.20;99.90;;;;;;5079468;28;20078;-94
2022/02/08 20:18:02;;;;;;;9.07;5.25;;;1.20;99.90;;;;;;5079647;28;20048;-95
2022/02/08 20:20:27;;;;;;;14.57;7.10;;;1.10;99.90;;;;;;5080052;28;20020;-94
2022/02/08 20:22:59;;;;;;;11.15;6.25;;;1.20;99.90;;;;;;5080124;28;20020;-94
2022/02/08 20:25:26;;;;;;;11.50;6.60;;;1.20;99.90;;;;;;5079890;28;20050;-94
2022/02/08 20:28:06;;;;;;;12.35;7.82;;;1.20;99.90;;;;;;5079332;28;20053;-95
2022/02/08 20:30:34;;;;;;;15.15;8.48;;;1.20;99.90;;;;;;5079554;28;20077;-95
2022/02/08 20:33:02;;;;;;;20.73;10.07;;;1.20;99.90;;;;;;5079999;28;20028;-95
2022/02/08 20:35:32;;;;;;;21.70;11.35;;;1.20;99.90;;;;;;5079492;28;20038;-94
2022/02/08 20:37:57;;;;;;;35.58;15.43;;;1.20;99.90;;;;;;5079318;28;20028;-95
2022/02/08 20:40:30;;;;;;;22.98;10.82;;;1.20;99.90;;;;;;5078987;28;20042;-95
2022/02/08 20:43:00;;;;;;;25.42;11.85;;;1.20;99.90;;;;;;5078523;28;20152;-95
2022/02/08 20:45:26;;;;;;;;;;;1.10;99.90;;;;;;5079599;28;20020;-96
2022/02/08 20:47:52;;;;;;;24.80;10.65;;;1.10;99.90;;;;;;5078961;28;19904;-95
2022/02/08 20:50:24;;;;;;;23.95;10.93;;;1.10;99.90;;;;;;5079747;28;20024;-96
2022/02/08 20:52:54;;;;;;;20.60;8.82;;;1.10;99.90;;;;;;5079442;28;20111;-95
2022/02/08 20:55:22;;;;;;;16.90;9.02;;;1.20;99.90;;;;;;5079447;28;20139;-96
2022/02/08 20:58:01;;;;;;;27.75;11.77;;;1.10;99.90;;;;;;5078984;28;20028;-95
2022/02/08 21:00:30;;;;;;;25.52;12.35;;;1.20;99.90;;;;;;5078675;28;20024;-95
2022/02/08 21:03:12;;;;;;;27.42;12.45;;;1.20;99.90;;;;;;5078985;28;20107;-95
2022/02/08 21:05:41;;;;;;;24.13;11.23;;;1.20;99.90;;;;;;5079335;28;20043;-95
2022/02/08 21:08:07;;;;;;;28.30;11.85;;;1.20;99.90;;;;;;5079506;28;20757;-96
2022/02/08 21:10:35;;;;;;;28.02;12.80;;;1.20;99.90;;;;;;5079230;28;20032;-95
2022/02/08 21:13:17;;;;;;;28.15;12.55;;;1.20;99.90;;;;;;5078668;28;20028;-95
2022/02/08 21:15:45;;;;;;;25.30;11.57;;;1.20;99.90;;;;;;5078404;28;20024;-96
2022/02/08 21:18:14;;;;;;;25.88;11.98;;;1.20;99.90;;;;;;5078171;28;20055;-95
2022/02/08 21:20:41;;;;;;;23.58;11.18;;;1.20;99.90;;;;;;5078109;28;20024;-95
2022/02/08 21:23:07;;;;;;;25.25;12.52;;;1.20;99.90;;;;;;5077677;28;20494;-95
2022/02/08 21:25:36;;;;;;;30.48;14.02;;;1.20;99.90;;;;;;5078687;28;20020;-95
2022/02/08 21:28:05;;;;;;;33.40;12.60;;;1.20;99.90;;;;;;5078165;28;20035;-95
2022/02/08 21:47:39;;;;;;;34.35;14.13;;;1.20;99.90;;;;;;5095901;28;20043;-94
2022/02/08 21:50:00;;;;;;;27.38;12.50;;;1.20;99.90;;;;;;5095514;28;20024;-95
2022/02/08 21:52:33;;;;;;;21.48;9.60;;;1.20;99.90;;;;;;5078547;28;20027;-95
2022/02/08 21:55:10;;;;;;;18.35;9.45;;;1.20;99.90;;;;;;5078264;28;20024;-95
2022/02/08 21:57:53;;;;;;;20.25;9.25;;;1.20;99.90;;;;;;5077611;28;20031;-95
2022/02/08 22:00:22;;;;;;;20.88;10.13;;;1.20;99.90;;;;;;5077792;28;20023;-95
2022/02/08 22:02:52;;;;;;;19.23;9.80;;;1.20;99.90;;;;;;5077592;28;20027;-95
2022/02/08 22:05:22;;;;;;;19.48;8.95;;;1.20;99.90;;;;;;5077692;28;20020;-96
2022/02/08 22:08:03;;;;;;;21.23;9.57;;;1.20;99.90;;;;;;5077501;28;20031;-95
2022/02/08 22:23:32;;;;;;;21.52;10.50;;;1.20;99.90;;;;;;5095215;28;20532;-94
2022/02/08 22:31:39;;;;;;;19.00;9.63;;;1.10;99.90;;;;;;5094985;28;20103;-95
2022/02/08 22:34:11;;;;;;;23.65;9.73;;;1.00;99.90;;;;;;5077429;28;20128;-95
2022/02/08 22:36:45;;;;;;;20.70;10.07;;;1.00;99.90;;;;;;5076928;28;20059;-95
2022/02/08 22:39:29;;;;;;;22.90;11.05;;;0.90;99.90;;;;;;5077428;28;20032;-95
2022/02/08 22:42:08;;;;;;;24.25;11.65;;;0.90;99.90;;;;;;5076666;28;20107;-95
2022/02/08 22:44:54;;;;;;;26.98;11.10;;;0.90;99.90;;;;;;5077321;28;20027;-95
2022/02/08 22:47:21;;;;;;;18.35;9.70;;;0.90;99.90;;;;;;5077573;28;20034;-95
2022/02/08 22:49:49;;;;;;;17.05;8.27;;;0.90;99.90;;;;;;5077173;28;20024;-95
2022/02/08 22:52:19;;;;;;;18.67;7.68;;;0.90;99.90;;;;;;5076855;28;20531;-95
2022/02/08 22:54:45;;;;;;;13.75;7.25;;;0.90;99.90;;;;;;5076745;28;20039;-96
2022/02/08 22:57:13;;;;;;;16.55;7.50;;;0.90;99.90;;;;;;5077427;28;20032;-95
2022/02/08 22:59:47;;;;;;;16.13;6.55;;;0.90;99.90;;;;;;5077863;28;20020;-95
2022/02/08 23:02:24;;;;;;;14.55;7.22;;;0.90;99.90;;;;;;5076884;28;20025;-95
2022/02/08 23:04:50;;;;;;;12.85;7.22;;;1.00;99.90;;;;;;5076767;28;20107;-95
2022/02/08 23:07:18;;;;;;;14.70;7.25;;;1.00;99.90;;;;;;5076487;28;20024;-96
2022/02/08 23:10:01;;;;;;;16.40;7.57;;;1.00;99.90;;;;;;5076582;28;20028;-95
2022/02/08 23:12:51;;;;;;;14.05;6.50;;;1.00;99.90;;;;;;5076573;28;20031;-96
2022/02/08 23:37:11;;;;;;;23.30;9.30;;;1.00;99.90;;;;;;5094535;28;20108;-96
2022/02/08 23:39:39;;;;;;;34.45;11.55;;;1.10;99.90;;;;;;5079063;28;20027;-95
2022/02/08 23:42:11;;;;;;;37.58;11.60;;;1.10;99.90;;;;;;5080611;28;20016;-95
2022/02/08 23:44:40;;;;;;;36.50;12.52;;;1.10;99.90;;;;;;5079307;28;20033;-95
2022/02/08 23:47:13;;;;;;;30.10;11.00;;;1.10;99.90;;;;;;5080415;28;20024;-96
2022/02/08 23:49:44;;;;;;;33.10;10.80;;;1.10;99.90;;;;;;5080857;28;20039;-96
2022/02/08 23:52:18;;;;;;;34.60;11.85;;;1.10;99.90;;;;;;5080303;28;20060;-96
2022/02/08 23:54:49;;;;;;;29.15;10.80;;;1.10;99.90;;;;;;5081238;28;20053;-96
2022/02/08 23:57:27;;;;;;;27.23;10.57;;;1.10;99.90;;;;;;5079376;28;20390;-96
2022/02/08 23:59:55;;;;;;;24.70;10.35;;;1.10;99.90;;;;;;5080132;28;20021;-94
